Time;durP1;ratioP1;P1;durP2;ratioP2;P2;SDS_P1;SDS_P2;PMS_P1;PMS_P2;Temp;Humidity;BMP_temperature;BMP_pressure;BME280_temperature;BME280_humidity;BME280_pressure;Samples;Min_cycle;Max_cycle;Signal;HPM_P1;HPM_P2
2023/04/29 00:00:17;;;;;;;;;;;;;;;;;;1047437;28;4020;-49
2023/04/29 00:01:07;;;;;;;;;;;;;;;;;;1046580;28;1886;-45
2023/04/29 00:01:38;;;;;;;;;;;;;;;;;;1046654;28;3691;-47
2023/04/29 00:02:08;;;;;;;;;;;;;;;;;;1044573;28;4399;-45
2023/04/29 00:02:39;;;;;;;;;;;;;;;;;;1046988;28;3272;-48
2023/04/29 00:03:09;;;;;;;;;;;;;;;;;;1045992;28;4050;-47
2023/04/29 00:03:39;;;;;;;;;;;;;;;;;;1043568;28;1675;-46
2023/04/29 00:04:09;;;;;;;;;;;;;;;;;;1042758;28;4024;-45
2023/04/29 00:04:40;;;;;;;;;;;;;;;;;;1047518;28;1709;-46
2023/04/29 00:05:10;;;;;;;;;;;;;;;;;;1045203;28;3977;-46
2023/04/29 00:05:41;;;;;;;;;;;;;;;;;;1045990;28;2913;-48
2023/04/29 00:06:11;;;;;;;;;;;;;;;;;;1044479;28;4008;-46
2023/04/29 00:06:41;;;;;;;;;;;;;;;;;;1047260;28;3444;-51
2023/04/29 00:07:14;;;;;;;;;;;;;;;;;;1046720;28;3936;-46
2023/04/29 00:07:45;;;;;;;;;;;;;;;;;;1046930;28;1871;-49
2023/04/29 00:08:15;;;;;;;;;;;;;;;;;;1044853;28;4003;-48
2023/04/29 00:08:45;;;;;;;;;;;;;;;;;;1044100;28;2933;-49
2023/04/29 00:09:15;;;;;;;;;;;;;;;;;;1045071;28;4050;-48
2023/04/29 00:09:46;;;;;;;;;;;;;;;;;;1046386;28;1882;-44
2023/04/29 00:10:16;;;;;;;;;;;;;;;;;;1046235;28;3785;-45
2023/04/29 00:10:46;;;;;;;;;;;;;;;;;;1046769;28;1773;-49
2023/04/29 00:11:16;;;;;;;;;;;;;;;;;;1046081;28;3778;-47
2023/04/29 00:11:49;;;;;;;;;;;;;;;;;;1045762;28;3163;-45
2023/04/29 00:12:19;;;;;;;;;;;;;;;;;;1044180;28;4090;-47
2023/04/29 00:12:50;;;;;;;;;;;;;;;;;;1046263;28;3087;-45
2023/04/29 00:13:20;;;;;;;;;;;;;;;;;;1045904;28;4100;-48
2023/04/29 00:13:51;;;;;;;;;;;;;;;;;;1044625;28;1787;-46
2023/04/29 00:14:21;;;;;;;;;;;;;;;;;;1044857;28;3812;-44
2023/04/29 00:14:51;;;;;;;;;;;;;;;;;;1046093;28;2980;-47
2023/04/29 00:15:22;;;;;;;;;;;;;;;;;;1047275;28;3949;-48
2023/04/29 00:15:52;;;;;;;;;;;;;;;;;;1046918;28;1855;-44
2023/04/29 00:16:22;;;;;;;;;;;;;;;;;;1047014;28;3844;-47
2023/04/29 00:16:53;;;;;;;;;;;;;;;;;;1047083;28;1780;-45
2023/04/29 00:17:23;;;;;;;;;;;;;;;;;;1046977;28;3884;-48
2023/04/29 00:17:54;;;;;;;;;;;;;;;;;;1047009;28;1669;-45
2023/04/29 00:18:24;;;;;;;;;;;;;;;;;;1047478;28;4550;-46
2023/04/29 00:18:55;;;;;;;;;;;;;;;;;;1046930;28;3092;-51
2023/04/29 00:19:25;;;;;;;;;;;;;;;;;;1046124;28;3759;-46
2023/04/29 00:19:55;;;;;;;;;;;;;;;;;;1046312;28;3180;-43
2023/04/29 00:20:26;;;;;;;;;;;;;;;;;;1046454;28;3931;-46
2023/04/29 00:20:56;;;;;;;;;;;;;;;;;;1047691;28;1686;-46
2023/04/29 00:21:26;;;;;;;;;;;;;;;;;;1045193;28;4027;-45
2023/04/29 00:21:57;;;;;;;;;;;;;;;;;;1046837;28;2230;-44
2023/04/29 00:22:27;;;;;;;;;;;;;;;;;;1046229;28;3876;-45
2023/04/29 00:22:57;;;;;;;;;;;;;;;;;;1047449;28;1699;-47
2023/04/29 00:23:28;;;;;;;;;;;;;;;;;;1046783;28;4225;-47
2023/04/29 00:23:59;;;;;;;;;;;;;;;;;;1046287;28;1682;-45
2023/04/29 00:24:29;;;;;;;;;;;;;;;;;;1046676;28;3818;-46
2023/04/29 00:24:59;;;;;;;;;;;;;;;;;;1047634;28;1629;-44
2023/04/29 00:25:30;;;;;;;;;;;;;;;;;;1046269;28;3767;-46
2023/04/29 00:26:00;;;;;;;;;;;;;;;;;;1047463;28;1728;-45
2023/04/29 00:26:31;;;;;;;;;;;;;;;;;;1046178;28;3959;-46
2023/04/29 00:27:01;;;;;;;;;;;;;;;;;;1047740;28;1399;-46
2023/04/29 00:27:32;;;;;;;;;;;;;;;;;;1046382;28;3889;-44
2023/04/29 00:28:03;;;;;;;;;;;;;;;;;;1047638;28;1762;-46
2023/04/29 00:28:33;;;;;;;;;;;;;;;;;;1046288;28;3996;-44
2023/04/29 00:29:03;;;;;;;;;;;;;;;;;;1045826;28;2803;-46
2023/04/29 00:29:34;;;;;;;;;;;;;;;;;;1045457;28;4031;-45
2023/04/29 00:30:05;;;;;;;;;;;;;;;;;;1047596;28;1767;-51
2023/04/29 00:30:36;;;;;;;;;;;;;;;;;;1046433;28;4170;-46
2023/04/29 00:31:06;;;;;;;;;;;;;;;;;;1047443;28;1666;-45
2023/04/29 00:31:36;;;;;;;;;;;;;;;;;;1045615;28;3979;-46
2023/04/29 00:32:07;;;;;;;;;;;;;;;;;;1047146;28;1968;-49
2023/04/29 00:32:37;;;;;;;;;;;;;;;;;;1046313;28;3794;-44
2023/04/29 00:33:07;;;;;;;;;;;;;;;;;;1046624;28;1825;-48
2023/04/29 00:33:39;;;;;;;;;;;;;;;;;;1047327;28;3823;-46
2023/04/29 00:34:09;;;;;;;;;;;;;;;;;;1046166;28;3922;-45
2023/04/29 00:34:40;;;;;;;;;;;;;;;;;;1047375;28;1729;-46
2023/04/29 00:35:10;;;;;;;;;;;;;;;;;;1046310;28;3963;-45
2023/04/29 00:35:40;;;;;;;;;;;;;;;;;;1041645;28;2880;-46
2023/04/29 00:36:11;;;;;;;;;;;;;;;;;;1042588;28;3778;-46
2023/04/29 00:36:41;;;;;;;;;;;;;;;;;;1044845;28;2022;-46
2023/04/29 00:37:11;;;;;;;;;;;;;;;;;;1042661;28;3784;-47
2023/04/29 00:37:42;;;;;;;;;;;;;;;;;;1047187;28;1708;-44
2023/04/29 00:38:12;;;;;;;;;;;;;;;;;;1046384;28;4060;-44
2023/04/29 00:38:42;;;;;;;;;;;;;;;;;;1046859;28;2896;-47
2023/04/29 00:39:12;;;;;;;;;;;;;;;;;;1045989;28;3934;-46
2023/04/29 00:39:43;;;;;;;;;;;;;;;;;;1047447;28;1609;-48
2023/04/29 00:40:14;;;;;;;;;;;;;;;;;;1046523;28;3964;-47
2023/04/29 00:40:44;;;;;;;;;;;;;;;;;;1047364;28;1694;-50
2023/04/29 00:41:15;;;;;;;;;;;;;;;;;;1046582;28;4101;-48
2023/04/29 00:41:45;;;;;;;;;;;;;;;;;;1047215;28;1654;-44
2023/04/29 00:42:16;;;;;;;;;;;;;;;;;;1045337;28;3955;-47
2023/04/29 00:42:46;;;;;;;;;;;;;;;;;;1046950;28;2959;-44
2023/04/29 00:43:16;;;;;;;;;;;;;;;;;;1047224;28;3844;-45
2023/04/29 00:43:46;;;;;;;;;;;;;;;;;;1046684;28;1815;-46
2023/04/29 00:44:17;;;;;;;;;;;;;;;;;;1046220;28;3941;-50
2023/04/29 00:44:47;;;;;;;;;;;;;;;;;;1045283;28;3084;-44
2023/04/29 00:45:17;;;;;;;;;;;;;;;;;;1044291;28;3867;-45
2023/04/29 00:45:48;;;;;;;;;;;;;;;;;;1046431;28;1823;-46
2023/04/29 00:46:18;;;;;;;;;;;;;;;;;;1045134;28;4012;-46
2023/04/29 00:46:48;;;;;;;;;;;;;;;;;;1044666;28;3084;-46
2023/04/29 00:47:19;;;;;;;;;;;;;;;;;;1047302;28;4023;-47
2023/04/29 00:47:49;;;;;;;;;;;;;;;;;;1046845;28;1768;-52
2023/04/29 00:48:19;;;;;;;;;;;;;;;;;;1045824;28;4002;-44
2023/04/29 00:48:50;;;;;;;;;;;;;;;;;;1047118;28;1857;-45
2023/04/29 00:49:20;;;;;;;;;;;;;;;;;;1047000;28;3787;-47
2023/04/29 00:49:50;;;;;;;;;;;;;;;;;;1045339;28;2976;-46
2023/04/29 00:50:21;;;;;;;;;;;;;;;;;;1043654;28;3768;-46
2023/04/29 00:50:51;;;;;;;;;;;;;;;;;;1046952;28;2760;-45
2023/04/29 00:51:22;;;;;;;;;;;;;;;;;;1045902;28;4279;-44
2023/04/29 00:51:53;;;;;;;;;;;;;;;;;;1045225;28;4836;-46
2023/04/29 00:52:23;;;;;;;;;;;;;;;;;;1046201;28;3788;-49
2023/04/29 00:52:54;;;;;;;;;;;;;;;;;;1044284;28;2933;-50
2023/04/29 00:53:24;;;;;;;;;;;;;;;;;;1044668;28;4372;-47
2023/04/29 00:53:55;;;;;;;;;;;;;;;;;;1045923;28;2966;-49
2023/04/29 00:54:25;;;;;;;;;;;;;;;;;;1045314;28;4238;-47
2023/04/29 00:54:55;;;;;;;;;;;;;;;;;;1046901;28;1680;-47
2023/04/29 00:55:26;;;;;;;;;;;;;;;;;;1046061;28;3891;-49
2023/04/29 00:55:56;;;;;;;;;;;;;;;;;;1047521;28;1722;-47
2023/04/29 00:56:29;;;;;;;;;;;;;;;;;;1045202;28;4093;-45
2023/04/29 00:57:00;;;;;;;;;;;;;;;;;;1046262;28;2917;-46
2023/04/29 00:57:33;;;;;;;;;;;;;;;;;;1046026;28;4361;-45
2023/04/29 00:58:03;;;;;;;;;;;;;;;;;;1047139;28;1815;-48
2023/04/29 00:58:35;;;;;;;;;;;;;;;;;;1045371;28;3999;-45
2023/04/29 00:59:05;;;;;;;;;;;;;;;;;;1046188;28;3014;-49
2023/04/29 00:59:36;;;;;;;;;;;;;;;;;;1047158;28;3877;-47
2023/04/29 01:00:08;;;;;;;;;;;;;;;;;;1046878;28;2856;-46
2023/04/29 01:00:40;;;;;;;;;;;;;;;;;;1042097;28;3862;-47
2023/04/29 01:01:11;;;;;;;;;;;;;;;;;;1043237;28;3976;-47
2023/04/29 01:01:41;;;;;;;;;;;;;;;;;;1041730;28;2787;-45
2023/04/29 01:02:12;;;;;;;;;;;;;;;;;;1041671;28;4106;-46
2023/04/29 01:02:43;;;;;;;;;;;;;;;;;;1042132;28;1733;-47
2023/04/29 01:03:14;;;;;;;;;;;;;;;;;;1040181;28;4430;-44
2023/04/29 01:03:44;;;;;;;;;;;;;;;;;;1040391;28;2999;-46
2023/04/29 01:04:15;;;;;;;;;;;;;;;;;;1040386;28;3778;-48
2023/04/29 01:04:45;;;;;;;;;;;;;;;;;;1042526;28;1819;-49
2023/04/29 01:05:16;;;;;;;;;;;;;;;;;;1042301;28;3806;-49
2023/04/29 01:05:49;;;;;;;;;;;;;;;;;;1045090;28;2996;-47
2023/04/29 01:06:29;;;;;;;;;;;;;;;;;;1046268;28;4342;-47
2023/04/29 01:07:02;;;;;;;;;;;;;;;;;;1046426;28;2221;-49
2023/04/29 01:07:47;;;;;;;;;;;;;;;;;;1047027;28;3807;-49
2023/04/29 01:08:33;;;;;;;;;;;;;;;;;;1046150;28;3755;-46
2023/04/29 01:09:15;;;;;;;;;;;;;;;;;;1045337;28;1750;-46
2023/04/29 01:10:08;;;;;;;;;;;;;;;;;;1044323;28;3859;-47
2023/04/29 01:10:43;;;;;;;;;;;;;;;;;;1047246;28;3984;-51
2023/04/29 01:11:15;;;;;;;;;;;;;;;;;;1045649;28;4254;-46
2023/04/29 01:11:52;;;;;;;;;;;;;;;;;;1045835;28;1892;-45
2023/04/29 01:12:31;;;;;;;;;;;;;;;;;;1046739;28;4347;-46
2023/04/29 01:13:21;;;;;;;;;;;;;;;;;;1047244;28;1720;-47
2023/04/29 01:13:54;;;;;;;;;;;;;;;;;;1046753;28;3790;-45
2023/04/29 01:14:26;;;;;;;;;;;;;;;;;;1046190;28;4433;-46
2023/04/29 01:15:05;;;;;;;;;;;;;;;;;;1047660;28;1662;-47
2023/04/29 01:15:45;;;;;;;;;;;;;;;;;;1045128;28;3836;-45
2023/04/29 01:16:20;;;;;;;;;;;;;;;;;;1045667;28;3791;-46
2023/04/29 01:16:50;;;;;;;;;;;;;;;;;;1046741;28;1678;-48
2023/04/29 01:17:24;;;;;;;;;;;;;;;;;;1046832;28;4345;-44
2023/04/29 01:17:57;;;;;;;;;;;;;;;;;;1046820;28;2082;-44
2023/04/29 01:18:50;;;;;;;;;;;;;;;;;;1045786;28;4091;-45
2023/04/29 01:19:26;;;;;;;;;;;;;;;;;;1045807;28;4047;-49
2023/04/29 01:19:57;;;;;;;;;;;;;;;;;;1044380;28;2844;-50
2023/04/29 01:20:28;;;;;;;;;;;;;;;;;;1044131;28;3893;-46
2023/04/29 01:20:59;;;;;;;;;;;;;;;;;;1047114;28;1736;-48
2023/04/29 01:21:30;;;;;;;;;;;;;;;;;;1046692;28;4033;-50
2023/04/29 01:22:01;;;;;;;;;;;;;;;;;;1046491;28;2139;-46
2023/04/29 01:22:31;;;;;;;;;;;;;;;;;;1046167;28;3755;-48
2023/04/29 01:23:01;;;;;;;;;;;;;;;;;;1047053;28;1693;-46
2023/04/29 01:23:32;;;;;;;;;;;;;;;;;;1045645;28;3760;-45
2023/04/29 01:24:02;;;;;;;;;;;;;;;;;;1046570;28;3087;-46
2023/04/29 01:24:33;;;;;;;;;;;;;;;;;;1045045;28;3739;-47
2023/04/29 01:25:04;;;;;;;;;;;;;;;;;;1045347;28;1667;-45
2023/04/29 01:25:35;;;;;;;;;;;;;;;;;;1046667;28;3754;-45
2023/04/29 01:26:07;;;;;;;;;;;;;;;;;;1046190;28;1640;-49
2023/04/29 01:26:37;;;;;;;;;;;;;;;;;;1045896;28;3957;-47
2023/04/29 01:27:28;;;;;;;;;;;;;;;;;;1046510;28;1978;-43
2023/04/29 01:28:04;;;;;;;;;;;;;;;;;;1046935;28;3927;-47
2023/04/29 01:28:57;;;;;;;;;;;;;;;;;;1046150;28;4080;-46
2023/04/29 01:29:34;;;;;;;;;;;;;;;;;;1045094;28;3783;-46
2023/04/29 01:30:16;;;;;;;;;;;;;;;;;;1047518;28;1680;-48
2023/04/29 01:31:03;;;;;;;;;;;;;;;;;;1045597;28;3888;-46
2023/04/29 01:31:33;;;;;;;;;;;;;;;;;;1045249;28;3693;-46
2023/04/29 01:32:07;;;;;;;;;;;;;;;;;;1045655;28;2832;-46
2023/04/29 01:32:45;;;;;;;;;;;;;;;;;;1042526;28;3805;-44
2023/04/29 01:33:18;;;;;;;;;;;;;;;;;;1045063;28;3741;-49
2023/04/29 01:33:48;;;;;;;;;;;;;;;;;;1046602;28;1768;-45
2023/04/29 01:34:26;;;;;;;;;;;;;;;;;;1045724;28;4067;-47
2023/04/29 01:35:14;;;;;;;;;;;;;;;;;;1044951;28;3024;-44
2023/04/29 01:35:48;;;;;;;;;;;;;;;;;;1047028;28;3926;-44
2023/04/29 01:36:18;;;;;;;;;;;;;;;;;;1047166;28;3877;-44
2023/04/29 01:37:09;;;;;;;;;;;;;;;;;;1046368;28;2481;-47
2023/04/29 01:37:54;;;;;;;;;;;;;;;;;;1046616;28;3891;-48
2023/04/29 01:38:51;;;;;;;;;;;;;;;;;;1047993;28;4028;-49
2023/04/29 01:39:25;;;;;;;;;;;;;;;;;;1030216;28;4210;-43
2023/04/29 01:39:55;;;;;;;;;;;;;;;;;;1036004;28;1897;-46
2023/04/29 01:40:29;;;;;;;;;;;;;;;;;;1047590;28;3773;-46
2023/04/29 01:41:16;;;;;;;;;;;;;;;;;;1047259;28;1839;-46
2023/04/29 01:41:57;;;;;;;;;;;;;;;;;;1046818;28;4017;-44
2023/04/29 01:42:37;;;;;;;;;;;;;;;;;;1047404;28;3939;-47
2023/04/29 01:43:10;;;;;;;;;;;;;;;;;;1047654;28;1692;-44
2023/04/29 01:43:42;;;;;;;;;;;;;;;;;;1046946;28;3713;-50
2023/04/29 01:44:17;;;;;;;;;;;;;;;;;;1046665;28;3953;-48
2023/04/29 01:44:48;;;;;;;;;;;;;;;;;;1042308;28;2856;-44
2023/04/29 01:45:20;;;;;;;;;;;;;;;;;;1040625;28;4269;-49
2023/04/29 01:45:52;;;;;;;;;;;;;;;;;;1042837;28;2965;-49
2023/04/29 01:46:22;;;;;;;;;;;;;;;;;;1042027;28;4403;-46
2023/04/29 01:46:53;;;;;;;;;;;;;;;;;;1043581;28;1638;-46
2023/04/29 01:47:23;;;;;;;;;;;;;;;;;;1042395;28;3957;-49
2023/04/29 01:47:56;;;;;;;;;;;;;;;;;;1042314;28;3143;-44
2023/04/29 01:48:27;;;;;;;;;;;;;;;;;;1043076;28;4202;-46
2023/04/29 01:48:57;;;;;;;;;;;;;;;;;;1043457;28;3155;-46
2023/04/29 01:49:27;;;;;;;;;;;;;;;;;;1040173;28;4359;-44
2023/04/29 01:49:58;;;;;;;;;;;;;;;;;;1043566;28;2874;-47
2023/04/29 01:50:29;;;;;;;;;;;;;;;;;;1043364;28;4206;-50
2023/04/29 01:51:00;;;;;;;;;;;;;;;;;;1042860;28;2462;-49
2023/04/29 01:51:31;;;;;;;;;;;;;;;;;;1043437;28;4036;-44
2023/04/29 01:52:02;;;;;;;;;;;;;;;;;;1040587;28;3171;-46
2023/04/29 01:52:32;;;;;;;;;;;;;;;;;;1043682;28;3742;-46
2023/04/29 01:53:02;;;;;;;;;;;;;;;;;;1043112;28;2002;-43
2023/04/29 01:53:33;;;;;;;;;;;;;;;;;;1043353;28;3717;-44
2023/04/29 01:54:04;;;;;;;;;;;;;;;;;;1042801;28;1919;-46
2023/04/29 01:54:37;;;;;;;;;;;;;;;;;;1042828;28;4354;-46
2023/04/29 01:55:07;;;;;;;;;;;;;;;;;;1040988;28;3563;-45
2023/04/29 01:55:38;;;;;;;;;;;;;;;;;;1043304;28;3636;-47
2023/04/29 01:56:08;;;;;;;;;;;;;;;;;;1041259;28;3815;-45
2023/04/29 01:56:39;;;;;;;;;;;;;;;;;;1041392;28;2832;-48
2023/04/29 01:57:09;;;;;;;;;;;;;;;;;;1043101;28;4053;-45
2023/04/29 01:57:39;;;;;;;;;;;;;;;;;;1044028;28;1875;-45
2023/04/29 01:58:10;;;;;;;;;;;;;;;;;;1041750;28;4152;-46
2023/04/29 01:58:40;;;;;;;;;;;;;;;;;;1043130;28;2959;-47
2023/04/29 01:59:10;;;;;;;;;;;;;;;;;;1042349;28;3963;-44
2023/04/29 01:59:41;;;;;;;;;;;;;;;;;;1043601;28;1684;-46
2023/04/29 02:00:11;;;;;;;;;;;;;;;;;;1041658;28;3921;-44
2023/04/29 02:00:41;;;;;;;;;;;;;;;;;;1042621;28;2988;-47
2023/04/29 02:01:13;;;;;;;;;;;;;;;;;;1043053;28;3975;-45
2023/04/29 02:01:43;;;;;;;;;;;;;;;;;;1043947;28;1426;-47
2023/04/29 02:02:20;;;;;;;;;;;;;;;;;;1041410;28;3783;-45
2023/04/29 02:02:50;;;;;;;;;;;;;;;;;;1043869;28;1663;-46
2023/04/29 02:03:20;;;;;;;;;;;;;;;;;;1043104;28;4028;-48
2023/04/29 02:03:51;;;;;;;;;;;;;;;;;;1042601;28;2956;-44
2023/04/29 02:04:21;;;;;;;;;;;;;;;;;;1042690;28;4481;-50
2023/04/29 02:04:51;;;;;;;;;;;;;;;;;;1040518;28;3504;-46
2023/04/29 02:05:22;;;;;;;;;;;;;;;;;;1043175;28;4012;-48
2023/04/29 02:05:52;;;;;;;;;;;;;;;;;;1042500;28;2992;-46
2023/04/29 02:06:23;;;;;;;;;;;;;;;;;;1043548;28;4589;-45
2023/04/29 02:06:53;;;;;;;;;;;;;;;;;;1041935;28;2891;-46
2023/04/29 02:07:23;;;;;;;;;;;;;;;;;;1043442;28;4032;-47
2023/04/29 02:07:54;;;;;;;;;;;;;;;;;;1043103;28;1921;-46
2023/04/29 02:08:24;;;;;;;;;;;;;;;;;;1043532;28;3954;-49
2023/04/29 02:08:54;;;;;;;;;;;;;;;;;;1042134;28;3010;-47
2023/04/29 02:09:25;;;;;;;;;;;;;;;;;;1043316;28;3856;-49
2023/04/29 02:09:55;;;;;;;;;;;;;;;;;;1043150;28;1914;-47
2023/04/29 02:10:26;;;;;;;;;;;;;;;;;;1043346;28;4072;-47
2023/04/29 02:10:58;;;;;;;;;;;;;;;;;;1042429;28;2122;-48
2023/04/29 02:11:29;;;;;;;;;;;;;;;;;;1041433;28;3839;-44
2023/04/29 02:11:59;;;;;;;;;;;;;;;;;;1042317;28;1870;-48
2023/04/29 02:12:29;;;;;;;;;;;;;;;;;;1043060;28;4005;-47
2023/04/29 02:13:00;;;;;;;;;;;;;;;;;;1043240;28;1832;-45
2023/04/29 02:13:30;;;;;;;;;;;;;;;;;;1038255;28;3772;-48
2023/04/29 02:14:01;;;;;;;;;;;;;;;;;;1041067;28;3237;-46
2023/04/29 02:14:33;;;;;;;;;;;;;;;;;;1042905;28;4098;-46
2023/04/29 02:15:03;;;;;;;;;;;;;;;;;;1041862;28;2842;-44
2023/04/29 02:15:33;;;;;;;;;;;;;;;;;;1043243;28;4034;-45
2023/04/29 02:16:11;;;;;;;;;;;;;;;;;;1044155;28;1651;-47
2023/04/29 02:16:44;;;;;;;;;;;;;;;;;;1046952;28;3800;-44
2023/04/29 02:17:14;;;;;;;;;;;;;;;;;;1047123;28;3944;-48
2023/04/29 02:17:45;;;;;;;;;;;;;;;;;;1044622;28;1632;-46
2023/04/29 02:18:16;;;;;;;;;;;;;;;;;;1042970;28;3794;-44
2023/04/29 02:18:46;;;;;;;;;;;;;;;;;;1042720;28;2874;-48
2023/04/29 02:19:16;;;;;;;;;;;;;;;;;;1044038;28;3760;-48
2023/04/29 02:19:47;;;;;;;;;;;;;;;;;;1045409;28;2799;-47
2023/04/29 02:20:17;;;;;;;;;;;;;;;;;;1046670;28;3944;-48
2023/04/29 02:20:49;;;;;;;;;;;;;;;;;;1046032;28;3003;-51
2023/04/29 02:21:20;;;;;;;;;;;;;;;;;;1047281;28;4161;-47
2023/04/29 02:21:50;;;;;;;;;;;;;;;;;;1046400;28;2868;-45
2023/04/29 02:22:20;;;;;;;;;;;;;;;;;;1044844;28;4114;-44
2023/04/29 02:22:51;;;;;;;;;;;;;;;;;;1047223;28;1803;-47
2023/04/29 02:23:21;;;;;;;;;;;;;;;;;;1045106;28;3788;-44
2023/04/29 02:23:53;;;;;;;;;;;;;;;;;;1046057;28;2852;-48
2023/04/29 02:24:23;;;;;;;;;;;;;;;;;;1047229;28;3924;-46
2023/04/29 02:24:53;;;;;;;;;;;;;;;;;;1046041;28;2453;-44
2023/04/29 02:25:24;;;;;;;;;;;;;;;;;;1045627;28;3742;-49
2023/04/29 02:25:54;;;;;;;;;;;;;;;;;;1047405;28;1667;-45
2023/04/29 02:26:24;;;;;;;;;;;;;;;;;;1046919;28;4030;-47
2023/04/29 02:26:55;;;;;;;;;;;;;;;;;;1047388;28;1795;-46
2023/04/29 02:27:25;;;;;;;;;;;;;;;;;;1046717;28;3977;-50
2023/04/29 02:27:56;;;;;;;;;;;;;;;;;;1045488;28;2930;-45
2023/04/29 02:28:26;;;;;;;;;;;;;;;;;;1047191;28;3880;-48
2023/04/29 02:28:57;;;;;;;;;;;;;;;;;;1046973;28;2958;-46
2023/04/29 02:29:28;;;;;;;;;;;;;;;;;;1047329;28;3764;-46
2023/04/29 02:29:59;;;;;;;;;;;;;;;;;;1048209;28;1865;-44
2023/04/29 02:30:29;;;;;;;;;;;;;;;;;;1046676;28;3936;-45
2023/04/29 02:30:59;;;;;;;;;;;;;;;;;;1046401;28;2416;-45
2023/04/29 02:31:30;;;;;;;;;;;;;;;;;;1045669;28;4125;-44
2023/04/29 02:32:00;;;;;;;;;;;;;;;;;;1046406;28;2948;-46
2023/04/29 02:32:31;;;;;;;;;;;;;;;;;;1045787;28;3801;-44
2023/04/29 02:33:01;;;;;;;;;;;;;;;;;;1047703;28;1735;-45
2023/04/29 02:33:32;;;;;;;;;;;;;;;;;;1046421;28;4080;-45
2023/04/29 02:34:03;;;;;;;;;;;;;;;;;;1047264;28;2953;-45
2023/04/29 02:34:33;;;;;;;;;;;;;;;;;;1044738;28;3880;-45
2023/04/29 02:35:04;;;;;;;;;;;;;;;;;;1048029;28;1611;-44
2023/04/29 02:35:34;;;;;;;;;;;;;;;;;;1046974;28;3961;-51
2023/04/29 02:36:05;;;;;;;;;;;;;;;;;;1048093;28;1614;-44
2023/04/29 02:36:35;;;;;;;;;;;;;;;;;;1044708;28;3836;-46
2023/04/29 02:37:05;;;;;;;;;;;;;;;;;;1046243;28;2993;-43
2023/04/29 02:37:35;;;;;;;;;;;;;;;;;;1046559;28;3887;-52
2023/04/29 02:38:06;;;;;;;;;;;;;;;;;;1045794;28;2915;-46
2023/04/29 02:38:36;;;;;;;;;;;;;;;;;;1046662;28;3892;-47
2023/04/29 02:39:06;;;;;;;;;;;;;;;;;;1047626;28;1847;-46
2023/04/29 02:39:37;;;;;;;;;;;;;;;;;;1046719;28;3717;-45
2023/04/29 02:40:07;;;;;;;;;;;;;;;;;;1047306;28;1995;-46
2023/04/29 02:40:42;;;;;;;;;;;;;;;;;;1047432;28;3928;-46
2023/04/29 02:41:18;;;;;;;;;;;;;;;;;;1045892;28;3965;-50
2023/04/29 02:41:48;;;;;;;;;;;;;;;;;;1045512;28;2084;-45
2023/04/29 02:42:19;;;;;;;;;;;;;;;;;;1044682;28;3815;-45
2023/04/29 02:42:49;;;;;;;;;;;;;;;;;;1047295;28;1994;-46
2023/04/29 02:43:20;;;;;;;;;;;;;;;;;;1046679;28;3869;-47
2023/04/29 02:43:50;;;;;;;;;;;;;;;;;;1047715;28;1640;-44
2023/04/29 02:44:20;;;;;;;;;;;;;;;;;;1044827;28;3836;-45
2023/04/29 02:44:51;;;;;;;;;;;;;;;;;;1047277;28;1605;-44
2023/04/29 02:45:21;;;;;;;;;;;;;;;;;;1044975;28;4477;-45
2023/04/29 02:45:51;;;;;;;;;;;;;;;;;;1047192;28;2802;-44
2023/04/29 02:46:21;;;;;;;;;;;;;;;;;;1046315;28;4232;-47
2023/04/29 02:46:52;;;;;;;;;;;;;;;;;;1047629;28;1662;-47
2023/04/29 02:47:22;;;;;;;;;;;;;;;;;;1045846;28;4159;-51
2023/04/29 02:47:52;;;;;;;;;;;;;;;;;;1046017;28;1846;-47
2023/04/29 02:48:23;;;;;;;;;;;;;;;;;;1046905;28;3940;-45
2023/04/29 02:48:53;;;;;;;;;;;;;;;;;;1047758;28;1645;-47
2023/04/29 02:49:23;;;;;;;;;;;;;;;;;;1046940;28;3880;-48
2023/04/29 02:49:54;;;;;;;;;;;;;;;;;;1047637;28;1746;-49
2023/04/29 02:50:25;;;;;;;;;;;;;;;;;;1046419;28;4167;-46
2023/04/29 02:50:55;;;;;;;;;;;;;;;;;;1047778;28;1647;-45
2023/04/29 02:51:25;;;;;;;;;;;;;;;;;;1046338;28;3978;-47
2023/04/29 02:51:57;;;;;;;;;;;;;;;;;;1045500;28;2935;-44
2023/04/29 02:52:27;;;;;;;;;;;;;;;;;;1046931;28;4380;-46
2023/04/29 02:52:57;;;;;;;;;;;;;;;;;;1045682;28;2892;-44
2023/04/29 02:53:28;;;;;;;;;;;;;;;;;;1046456;28;4342;-45
2023/04/29 02:53:58;;;;;;;;;;;;;;;;;;1047592;28;1810;-46
2023/04/29 02:54:28;;;;;;;;;;;;;;;;;;1047032;28;4043;-45
2023/04/29 02:54:59;;;;;;;;;;;;;;;;;;1046337;28;3007;-46
2023/04/29 02:55:29;;;;;;;;;;;;;;;;;;1047479;28;4354;-48
2023/04/29 02:55:59;;;;;;;;;;;;;;;;;;1047007;28;1844;-47
2023/04/29 02:56:29;;;;;;;;;;;;;;;;;;1045742;28;3719;-47
2023/04/29 02:57:00;;;;;;;;;;;;;;;;;;1045302;28;2708;-47
2023/04/29 02:57:31;;;;;;;;;;;;;;;;;;1045132;28;4011;-44
2023/04/29 02:58:03;;;;;;;;;;;;;;;;;;1046138;28;2771;-46
2023/04/29 02:58:33;;;;;;;;;;;;;;;;;;1046211;28;3770;-47
2023/04/29 02:59:03;;;;;;;;;;;;;;;;;;1047050;28;1914;-46
2023/04/29 02:59:33;;;;;;;;;;;;;;;;;;1046247;28;4020;-46
2023/04/29 03:00:04;;;;;;;;;;;;;;;;;;1046462;28;2819;-48
2023/04/29 03:00:34;;;;;;;;;;;;;;;;;;1047384;28;4076;-47
2023/04/29 03:01:05;;;;;;;;;;;;;;;;;;1047662;28;1689;-47
2023/04/29 03:01:37;;;;;;;;;;;;;;;;;;1044193;28;4002;-47
2023/04/29 03:02:07;;;;;;;;;;;;;;;;;;1046616;28;1685;-43
2023/04/29 03:02:38;;;;;;;;;;;;;;;;;;1046660;28;3812;-46
2023/04/29 03:03:08;;;;;;;;;;;;;;;;;;1047811;28;1692;-47
2023/04/29 03:03:38;;;;;;;;;;;;;;;;;;1042966;28;3793;-45
2023/04/29 03:04:09;;;;;;;;;;;;;;;;;;1043097;28;4044;-44
2023/04/29 03:04:39;;;;;;;;;;;;;;;;;;1046043;28;2960;-44
2023/04/29 03:05:10;;;;;;;;;;;;;;;;;;1046018;28;4487;-47
2023/04/29 03:05:40;;;;;;;;;;;;;;;;;;1047226;28;1946;-44
2023/04/29 03:06:10;;;;;;;;;;;;;;;;;;1046787;28;4030;-46
2023/04/29 03:06:42;;;;;;;;;;;;;;;;;;1046767;28;1803;-44
2023/04/29 03:07:12;;;;;;;;;;;;;;;;;;1047210;28;3771;-44
2023/04/29 03:07:43;;;;;;;;;;;;;;;;;;1044256;28;2911;-45
2023/04/29 03:08:13;;;;;;;;;;;;;;;;;;1047318;28;3760;-50
2023/04/29 03:08:43;;;;;;;;;;;;;;;;;;1046621;28;1912;-44
2023/04/29 03:09:13;;;;;;;;;;;;;;;;;;1047271;28;4144;-44
2023/04/29 03:09:44;;;;;;;;;;;;;;;;;;1047170;28;1845;-47
2023/04/29 03:10:14;;;;;;;;;;;;;;;;;;1046429;28;3839;-47
2023/04/29 03:10:45;;;;;;;;;;;;;;;;;;1046081;28;2900;-45
2023/04/29 03:11:15;;;;;;;;;;;;;;;;;;1046799;28;3781;-51
2023/04/29 03:11:46;;;;;;;;;;;;;;;;;;1046957;28;2664;-46
2023/04/29 03:12:16;;;;;;;;;;;;;;;;;;1046345;28;3969;-46
2023/04/29 03:12:46;;;;;;;;;;;;;;;;;;1046432;28;2877;-49
2023/04/29 03:13:17;;;;;;;;;;;;;;;;;;1047105;28;4244;-46
2023/04/29 03:13:47;;;;;;;;;;;;;;;;;;1047627;28;1855;-45
2023/04/29 03:14:17;;;;;;;;;;;;;;;;;;1046785;28;3838;-44
2023/04/29 03:14:48;;;;;;;;;;;;;;;;;;1045389;28;1773;-45
2023/04/29 03:15:19;;;;;;;;;;;;;;;;;;1045321;28;3796;-45
2023/04/29 03:15:49;;;;;;;;;;;;;;;;;;1047809;28;1671;-47
2023/04/29 03:16:20;;;;;;;;;;;;;;;;;;1046742;28;3867;-47
2023/04/29 03:16:51;;;;;;;;;;;;;;;;;;1046671;28;2979;-51
2023/04/29 03:17:21;;;;;;;;;;;;;;;;;;1045631;28;4010;-44
2023/04/29 03:17:51;;;;;;;;;;;;;;;;;;1047323;28;2805;-49
2023/04/29 03:18:22;;;;;;;;;;;;;;;;;;1046961;28;3811;-50
2023/04/29 03:18:52;;;;;;;;;;;;;;;;;;1045729;28;2864;-48
2023/04/29 03:19:22;;;;;;;;;;;;;;;;;;1043457;28;3783;-48
2023/04/29 03:19:53;;;;;;;;;;;;;;;;;;1046961;28;2726;-49
2023/04/29 03:20:23;;;;;;;;;;;;;;;;;;1046788;28;4003;-44
2023/04/29 03:20:53;;;;;;;;;;;;;;;;;;1047798;28;1643;-48
2023/04/29 03:21:26;;;;;;;;;;;;;;;;;;1047025;28;3873;-46
2023/04/29 03:21:57;;;;;;;;;;;;;;;;;;1045129;28;2674;-46
2023/04/29 03:22:27;;;;;;;;;;;;;;;;;;1044619;28;4139;-44
2023/04/29 03:22:59;;;;;;;;;;;;;;;;;;1046630;28;2934;-49
2023/04/29 03:23:30;;;;;;;;;;;;;;;;;;1047043;28;3865;-50
2023/04/29 03:24:00;;;;;;;;;;;;;;;;;;1047086;28;1652;-47
2023/04/29 03:24:30;;;;;;;;;;;;;;;;;;1046616;28;3751;-45
2023/04/29 03:25:01;;;;;;;;;;;;;;;;;;1047133;28;1851;-44
2023/04/29 03:25:31;;;;;;;;;;;;;;;;;;1046388;28;4427;-45
2023/04/29 03:26:01;;;;;;;;;;;;;;;;;;1047516;28;1565;-45
2023/04/29 03:26:32;;;;;;;;;;;;;;;;;;1045174;28;4954;-49
2023/04/29 03:27:03;;;;;;;;;;;;;;;;;;1046388;28;1677;-45
2023/04/29 03:27:33;;;;;;;;;;;;;;;;;;1045831;28;4000;-45
2023/04/29 03:28:04;;;;;;;;;;;;;;;;;;1045463;28;3217;-45
2023/04/29 03:28:34;;;;;;;;;;;;;;;;;;1045482;28;3946;-48
2023/04/29 03:29:04;;;;;;;;;;;;;;;;;;1046995;28;2880;-44
2023/04/29 03:29:35;;;;;;;;;;;;;;;;;;1046597;28;5277;-46
2023/04/29 03:30:05;;;;;;;;;;;;;;;;;;1047197;28;1942;-46
2023/04/29 03:30:36;;;;;;;;;;;;;;;;;;1047031;28;4495;-45
2023/04/29 03:31:06;;;;;;;;;;;;;;;;;;1046397;28;2911;-45
2023/04/29 03:31:36;;;;;;;;;;;;;;;;;;1047077;28;3717;-49
2023/04/29 03:32:06;;;;;;;;;;;;;;;;;;1046922;28;1831;-46
2023/04/29 03:32:37;;;;;;;;;;;;;;;;;;1046655;28;3766;-51
2023/04/29 03:33:07;;;;;;;;;;;;;;;;;;1047358;28;1858;-44
2023/04/29 03:33:37;;;;;;;;;;;;;;;;;;1046970;28;3829;-48
2023/04/29 03:34:07;;;;;;;;;;;;;;;;;;1047139;28;2235;-44
2023/04/29 03:34:38;;;;;;;;;;;;;;;;;;1045463;28;3905;-50
2023/04/29 03:35:10;;;;;;;;;;;;;;;;;;1047382;28;3933;-45
2023/04/29 03:35:40;;;;;;;;;;;;;;;;;;1046716;28;1837;-45
2023/04/29 03:36:11;;;;;;;;;;;;;;;;;;1046604;28;4034;-47
2023/04/29 03:36:41;;;;;;;;;;;;;;;;;;1046844;28;1633;-48
2023/04/29 03:37:12;;;;;;;;;;;;;;;;;;1045671;28;3821;-45
2023/04/29 03:37:43;;;;;;;;;;;;;;;;;;1046743;28;2969;-45
2023/04/29 03:38:13;;;;;;;;;;;;;;;;;;1045840;28;4193;-48
2023/04/29 03:38:43;;;;;;;;;;;;;;;;;;1047133;28;1843;-50
2023/04/29 03:39:14;;;;;;;;;;;;;;;;;;1047392;28;3782;-44
2023/04/29 03:39:44;;;;;;;;;;;;;;;;;;1047339;28;1903;-44